createdAt,value
2022-08-26T00:02:17.171Z,18.22
2022-08-26T00:04:49.682Z,18.20
2022-08-26T00:07:19.806Z,18.19
2022-08-26T00:09:48.835Z,18.20
2022-08-26T00:12:18.440Z,18.20
2022-08-26T00:14:46.618Z,18.20
2022-08-26T00:17:14.895Z,18.22
2022-08-26T00:19:43.248Z,18.23
2022-08-26T00:22:11.507Z,18.24
2022-08-26T00:24:40.186Z,18.23
2022-08-26T00:27:16.487Z,18.21
2022-08-26T00:29:46.591Z,18.17
2022-08-26T00:32:14.964Z,18.13
2022-08-26T00:34:43.395Z,18.10
2022-08-26T00:37:15.631Z,18.07
2022-08-26T00:39:45.654Z,18.01
2022-08-26T00:42:14.168Z,17.95
2022-08-26T00:44:42.431Z,17.89
2022-08-26T00:47:22.832Z,17.81
2022-08-26T00:49:51.820Z,17.71
2022-08-26T00:52:23.191Z,17.62
2022-08-26T00:55:00.966Z,17.53
2022-08-26T00:57:32.310Z,17.46
2022-08-26T01:00:03.381Z,17.41
2022-08-26T01:02:31.611Z,17.36
2022-08-26T01:05:04.004Z,17.33
2022-08-26T01:07:34.759Z,17.29
2022-08-26T01:10:09.106Z,17.27
2022-08-26T01:12:43.118Z,17.26
2022-08-26T01:15:16.435Z,17.26
2022-08-26T01:17:45.003Z,17.27
2022-08-26T01:20:29.967Z,17.29
2022-08-26T01:23:03.222Z,17.36
2022-08-26T01:25:35.122Z,17.41
2022-08-26T01:28:08.519Z,17.41
2022-08-26T01:30:41.003Z,17.40
2022-08-26T01:33:11.844Z,17.35
2022-08-26T01:35:40.476Z,17.29
2022-08-26T01:38:09.951Z,17.22
2022-08-26T01:40:39.715Z,17.14
2022-08-26T01:43:11.058Z,17.07
2022-08-26T01:45:41.649Z,17.02
2022-08-26T01:48:15.711Z,16.97
2022-08-26T01:50:46.320Z,16.93
2022-08-26T01:53:17.537Z,16.91
2022-08-26T01:55:49.960Z,16.87
2022-08-26T01:58:24.894Z,16.85
2022-08-26T02:00:53.184Z,16.84
2022-08-26T02:03:22.612Z,16.84
2022-08-26T02:06:03.475Z,16.85
2022-08-26T02:08:39.500Z,16.85
2022-08-26T02:11:08.035Z,16.84
2022-08-26T02:13:42.887Z,16.82
2022-08-26T02:16:12.334Z,16.80
2022-08-26T02:18:43.084Z,16.78
2022-08-26T02:21:13.711Z,16.78
2022-08-26T02:23:42.968Z,16.79
2022-08-26T02:26:19.361Z,16.78
2022-08-26T02:28:59.617Z,16.76
2022-08-26T02:31:28.179Z,16.74
2022-08-26T02:34:08.227Z,16.72
2022-08-26T02:36:39.282Z,16.69
2022-08-26T02:39:08.590Z,16.67
2022-08-26T02:41:45.033Z,16.64
2022-08-26T02:44:13.943Z,16.61
2022-08-26T02:46:44.505Z,16.60
2022-08-26T02:49:17.213Z,16.61
2022-08-26T02:51:46.957Z,16.62
2022-08-26T02:54:15.955Z,16.64
2022-08-26T02:56:44.922Z,16.65
2022-08-26T02:59:13.859Z,16.66
2022-08-26T03:01:42.772Z,16.67
2022-08-26T03:04:12.623Z,16.65
2022-08-26T03:06:42.551Z,16.64
2022-08-26T03:09:18.501Z,16.63
2022-08-26T03:11:47.407Z,16.63
2022-08-26T03:14:15.790Z,16.61
2022-08-26T03:16:44.473Z,16.59
2022-08-26T03:19:17.625Z,16.58
2022-08-26T03:21:47.352Z,16.57
2022-08-26T03:24:17.490Z,16.56
2022-08-26T03:26:52.160Z,16.54
2022-08-26T03:29:40.745Z,16.50
2022-08-26T03:32:09.606Z,16.48
2022-08-26T03:34:38.885Z,16.46
2022-08-26T03:37:08.137Z,16.44
2022-08-26T03:39:37.248Z,16.42
2022-08-26T03:42:06.446Z,16.38
2022-08-26T03:44:34.915Z,16.34
2022-08-26T03:47:03.570Z,16.32
2022-08-26T03:49:35.169Z,16.30
2022-08-26T03:52:04.676Z,16.28
2022-08-26T03:54:34.566Z,16.28
2022-08-26T03:57:02.883Z,16.26
2022-08-26T03:59:31.614Z,16.27
2022-08-26T04:01:59.832Z,16.28
2022-08-26T04:04:28.093Z,16.29
2022-08-26T04:06:59.328Z,16.30
2022-08-26T04:09:28.475Z,16.30
2022-08-26T04:11:59.039Z,16.33
2022-08-26T04:14:28.003Z,16.38
2022-08-26T04:16:56.799Z,16.47
2022-08-26T04:19:27.427Z,16.59
2022-08-26T04:21:55.906Z,16.72
2022-08-26T04:24:27.984Z,16.85
2022-08-26T04:26:56.870Z,16.98
2022-08-26T04:29:27.094Z,17.12
2022-08-26T04:31:56.639Z,17.21
2022-08-26T04:34:29.850Z,17.30
2022-08-26T04:37:02.024Z,17.47
2022-08-26T04:39:31.097Z,17.65
2022-08-26T04:42:00.566Z,17.81
2022-08-26T04:44:31.019Z,18.01
2022-08-26T04:46:59.387Z,18.20
2022-08-26T04:49:35.388Z,18.33
2022-08-26T04:52:05.391Z,18.45
2022-08-26T04:54:33.611Z,18.58
2022-08-26T04:57:01.766Z,18.81
2022-08-26T04:59:30.042Z,18.98
2022-08-26T05:01:59.841Z,19.12
2022-08-26T05:04:28.052Z,19.31
2022-08-26T05:07:02.747Z,19.48
2022-08-26T05:09:31.325Z,19.49
2022-08-26T05:11:59.828Z,19.55
2022-08-26T05:14:28.195Z,19.58
2022-08-26T05:16:57.110Z,19.70
2022-08-26T05:19:25.477Z,19.79
2022-08-26T05:21:56.272Z,20.00
2022-08-26T05:24:24.479Z,20.18
2022-08-26T05:26:53.413Z,20.19
2022-08-26T05:29:21.632Z,20.37
2022-08-26T05:31:53.517Z,20.52
2022-08-26T05:34:25.727Z,20.70
2022-08-26T05:36:59.731Z,20.88
2022-08-26T05:39:28.534Z,21.07
2022-08-26T05:41:56.765Z,21.12
2022-08-26T05:44:25.174Z,21.21
2022-08-26T05:46:53.565Z,21.35
2022-08-26T05:49:26.220Z,21.56
2022-08-26T05:51:55.374Z,21.79
2022-08-26T05:54:23.867Z,21.94
2022-08-26T05:56:52.436Z,22.10
2022-08-26T05:59:21.398Z,22.21
2022-08-26T06:01:55.109Z,22.21
2022-08-26T06:04:27.953Z,22.32
2022-08-26T06:06:58.015Z,22.50
2022-08-26T06:09:27.613Z,22.64
2022-08-26T06:11:56.546Z,22.88
2022-08-26T06:14:26.348Z,23.06
2022-08-26T06:16:55.260Z,23.05
2022-08-26T06:19:23.787Z,23.23
2022-08-26T06:21:54.695Z,23.42
2022-08-26T06:24:41.734Z,23.50
2022-08-26T06:27:14.001Z,23.77
2022-08-26T06:29:43.615Z,24.07
2022-08-26T06:32:12.127Z,24.30
2022-08-26T06:34:40.369Z,24.58
2022-08-26T06:37:09.125Z,24.78
2022-08-26T06:39:41.072Z,25.04
2022-08-26T06:42:11.760Z,25.33
2022-08-26T06:44:41.879Z,25.71
2022-08-26T06:47:12.965Z,26.02
2022-08-26T06:49:41.104Z,26.32
2022-08-26T06:52:09.917Z,26.58
2022-08-26T06:54:41.903Z,26.80
2022-08-26T06:57:13.085Z,27.13
2022-08-26T06:59:42.738Z,27.36
2022-08-26T07:02:13.600Z,27.51
2022-08-26T07:04:42.066Z,27.56
2022-08-26T07:07:14.662Z,27.78
2022-08-26T07:09:42.742Z,27.91
2022-08-26T07:12:10.856Z,27.90
2022-08-26T07:14:39.611Z,27.53
2022-08-26T07:17:11.096Z,27.53
2022-08-26T07:19:42.197Z,27.59
2022-08-26T07:22:11.151Z,27.84
2022-08-26T07:24:42.476Z,27.97
2022-08-26T07:27:14.180Z,28.02
2022-08-26T07:29:44.103Z,28.24
2022-08-26T07:32:15.580Z,28.40
2022-08-26T07:34:44.764Z,28.53
2022-08-26T07:37:12.958Z,28.36
2022-08-26T07:39:43.160Z,28.19
2022-08-26T07:42:15.960Z,28.12
2022-08-26T07:44:47.345Z,28.41
2022-08-26T07:47:24.667Z,28.52
2022-08-26T07:49:56.209Z,28.58
2022-08-26T07:52:27.651Z,28.59
2022-08-26T07:54:58.440Z,28.55
2022-08-26T07:57:28.567Z,28.85
2022-08-26T07:59:57.571Z,28.80
2022-08-26T08:02:28.490Z,28.51
2022-08-26T08:04:58.080Z,28.58
2022-08-26T08:07:44.267Z,28.69
2022-08-26T08:10:17.878Z,28.85
2022-08-26T08:12:47.626Z,29.01
2022-08-26T08:15:17.918Z,29.14
2022-08-26T08:17:46.454Z,29.11
2022-08-26T08:20:20.391Z,29.08
2022-08-26T08:22:49.159Z,29.17
2022-08-26T08:25:17.671Z,29.52
2022-08-26T08:27:45.969Z,29.79
2022-08-26T08:30:20.868Z,29.83
2022-08-26T08:32:52.972Z,29.88
2022-08-26T08:35:22.819Z,30.21
2022-08-26T08:37:54.650Z,30.33
2022-08-26T08:40:26.473Z,30.69
2022-08-26T08:43:01.528Z,30.84
2022-08-26T08:45:47.975Z,30.46
2022-08-26T08:48:29.419Z,30.61
2022-08-26T08:51:23.792Z,30.99
2022-08-26T08:53:55.844Z,31.39
2022-08-26T08:56:27.011Z,31.19
2022-08-26T08:59:04.217Z,30.88
2022-08-26T09:02:21.293Z,30.94
2022-08-26T09:05:15.237Z,31.19
2022-08-26T09:07:49.286Z,31.31
2022-08-26T09:10:39.180Z,31.20
2022-08-26T09:13:13.860Z,31.13
2022-08-26T09:16:04.441Z,31.16
2022-08-26T09:18:55.581Z,31.54
2022-08-26T09:21:25.593Z,31.97
2022-08-26T09:23:56.747Z,31.90
2022-08-26T09:26:42.922Z,31.95
2022-08-26T09:29:24.057Z,32.21
2022-08-26T09:32:13.399Z,32.28
2022-08-26T09:34:55.412Z,32.03
2022-08-26T09:40:23.525Z,32.39
2022-08-26T09:43:22.465Z,32.71
2022-08-26T09:45:59.437Z,32.64
2022-08-26T09:48:41.024Z,32.60
2022-08-26T09:51:25.019Z,32.62
2022-08-26T09:53:59.121Z,32.72
2022-08-26T09:56:33.961Z,32.95
2022-08-26T09:59:04.018Z,32.92
2022-08-26T10:01:44.801Z,33.14
2022-08-26T10:04:22.183Z,33.23
2022-08-26T10:07:07.621Z,33.21
2022-08-26T10:09:43.278Z,33.14
2022-08-26T10:12:17.226Z,33.18
2022-08-26T10:14:50.416Z,33.12
2022-08-26T10:17:43.353Z,32.81
2022-08-26T10:20:24.912Z,33.42
2022-08-26T10:23:02.875Z,33.70
2022-08-26T10:25:51.640Z,33.33
2022-08-26T10:28:39.982Z,33.08
2022-08-26T10:31:19.997Z,33.45
2022-08-26T10:33:52.561Z,33.97
2022-08-26T10:37:05.044Z,34.28
2022-08-26T10:40:02.376Z,34.25
2022-08-26T10:42:40.696Z,33.95
2022-08-26T10:45:22.602Z,33.72
2022-08-26T10:48:05.436Z,33.72
2022-08-26T10:50:38.570Z,33.83
2022-08-26T10:53:32.512Z,34.06
2022-08-26T10:56:32.334Z,34.22
2022-08-26T10:59:20.734Z,34.35
2022-08-26T11:02:12.962Z,34.83
2022-08-26T11:05:05.834Z,35.21
2022-08-26T11:07:46.339Z,34.97
2022-08-26T11:10:16.936Z,34.79
2022-08-26T11:12:49.353Z,34.49
2022-08-26T11:15:24.845Z,33.71
2022-08-26T11:17:53.338Z,33.59
2022-08-26T11:20:33.862Z,33.42
2022-08-26T11:23:24.066Z,33.21
2022-08-26T11:26:10.341Z,33.17
2022-08-26T11:28:50.208Z,33.46
2022-08-26T11:31:25.462Z,33.32
2022-08-26T11:34:02.059Z,33.65
2022-08-26T11:36:33.713Z,34.17
2022-08-26T11:39:14.273Z,34.39
2022-08-26T11:41:52.940Z,34.51
2022-08-26T11:44:28.379Z,34.34
2022-08-26T11:47:01.706Z,34.46
2022-08-26T11:49:33.393Z,34.51
2022-08-26T11:52:20.845Z,34.37
2022-08-26T11:55:09.018Z,34.21
2022-08-26T11:57:48.174Z,33.82
2022-08-26T12:00:24.649Z,33.91
2022-08-26T12:02:58.058Z,34.24
2022-08-26T12:05:31.359Z,34.57
2022-08-26T12:08:11.832Z,34.72
2022-08-26T12:10:43.020Z,34.32
2022-08-26T12:13:22.775Z,34.41
2022-08-26T12:16:00.279Z,34.58
2022-08-26T12:18:34.338Z,34.34
2022-08-26T12:21:20.659Z,34.27
2022-08-26T12:23:57.632Z,34.55
2022-08-26T12:26:35.335Z,34.83
2022-08-26T12:29:26.593Z,34.68
2022-08-26T12:32:13.617Z,34.74
2022-08-26T12:34:43.697Z,35.04
2022-08-26T12:37:14.688Z,35.22
2022-08-26T12:39:45.010Z,35.21
2022-08-26T12:42:16.026Z,35.40
2022-08-26T12:45:06.755Z,35.23
2022-08-26T12:47:43.944Z,34.68
2022-08-26T12:50:25.579Z,34.39
2022-08-26T12:53:07.083Z,34.12
2022-08-26T12:55:50.659Z,34.04
2022-08-26T12:58:33.333Z,34.06
2022-08-26T13:01:04.850Z,33.97
2022-08-26T13:03:38.852Z,34.08
2022-08-26T13:06:22.930Z,34.18
2022-08-26T13:09:00.505Z,34.27
2022-08-26T13:11:34.652Z,34.43
2022-08-26T13:14:06.826Z,34.53
2022-08-26T13:16:37.286Z,34.36
2022-08-26T13:19:11.229Z,34.29
2022-08-26T13:21:48.661Z,34.03
2022-08-26T13:24:20.748Z,33.72
2022-08-26T13:26:50.537Z,33.23
2022-08-26T13:29:19.543Z,32.83
2022-08-26T13:31:49.524Z,32.78
2022-08-26T13:34:20.322Z,33.00
2022-08-26T13:36:50.454Z,33.05
2022-08-26T13:39:19.087Z,33.05
2022-08-26T13:41:47.336Z,33.19
2022-08-26T13:44:16.907Z,33.23
2022-08-26T13:49:18.827Z,33.54
2022-08-26T13:51:47.203Z,33.70
2022-08-26T13:54:15.419Z,33.36
2022-08-26T13:56:43.635Z,33.17
2022-08-26T13:59:11.767Z,32.85
2022-08-26T14:01:40.234Z,32.82
2022-08-26T14:04:09.390Z,32.62
2022-08-26T14:06:37.574Z,32.58
2022-08-26T14:09:05.905Z,32.56
2022-08-26T14:11:41.209Z,32.74
2022-08-26T14:14:19.072Z,33.03
2022-08-26T14:16:58.619Z,33.09
2022-08-26T14:19:30.515Z,32.99
2022-08-26T14:22:01.203Z,32.85
2022-08-26T14:24:30.670Z,33.11
2022-08-26T14:26:58.966Z,33.44
2022-08-26T14:29:27.764Z,33.55
2022-08-26T14:31:57.235Z,33.44
2022-08-26T14:34:25.616Z,33.11
2022-08-26T14:36:53.946Z,32.99
2022-08-26T14:39:22.453Z,32.92
2022-08-26T14:41:55.236Z,32.83
2022-08-26T14:44:33.184Z,32.47
2022-08-26T14:47:04.488Z,32.17
2022-08-26T14:49:32.752Z,32.16
2022-08-26T14:52:00.960Z,32.25
2022-08-26T14:54:29.667Z,32.19
2022-08-26T14:57:01.884Z,32.17
2022-08-26T14:59:35.606Z,32.25
2022-08-26T15:02:05.548Z,32.27
2022-08-26T15:04:34.230Z,32.28
2022-08-26T15:07:03.451Z,32.36
2022-08-26T15:09:34.824Z,32.47
2022-08-26T15:12:03.646Z,32.40
2022-08-26T15:14:33.037Z,32.06
2022-08-26T15:17:01.564Z,31.88
2022-08-26T15:19:29.722Z,31.56
2022-08-26T15:21:58.041Z,31.20
2022-08-26T15:24:28.967Z,30.96
2022-08-26T15:26:57.720Z,30.74
2022-08-26T15:29:26.358Z,30.46
2022-08-26T15:31:55.319Z,30.27
2022-08-26T15:34:27.045Z,30.19
2022-08-26T15:36:55.264Z,29.99
2022-08-26T15:39:23.879Z,29.75
2022-08-26T15:41:52.133Z,29.58
2022-08-26T15:44:20.875Z,29.41
2022-08-26T15:46:50.197Z,29.24
2022-08-26T15:49:18.843Z,29.11
2022-08-26T15:51:51.734Z,29.01
2022-08-26T15:54:22.417Z,28.88
2022-08-26T15:56:52.442Z,28.76
2022-08-26T15:59:22.195Z,28.68
2022-08-26T16:01:51.821Z,28.58
2022-08-26T16:04:20.458Z,28.52
2022-08-26T16:06:51.671Z,28.43
2022-08-26T16:09:26.977Z,28.37
2022-08-26T16:11:58.830Z,28.29
2022-08-26T16:14:27.473Z,28.22
2022-08-26T16:16:57.502Z,28.13
2022-08-26T16:19:26.106Z,28.04
2022-08-26T16:21:54.463Z,27.97
2022-08-26T16:24:27.140Z,27.90
2022-08-26T16:26:58.508Z,27.83
2022-08-26T16:29:27.723Z,27.76
2022-08-26T16:31:55.842Z,27.69
2022-08-26T16:34:24.363Z,27.61
2022-08-26T16:36:52.758Z,27.56
2022-08-26T16:39:20.947Z,27.50
2022-08-26T16:41:49.113Z,27.42
2022-08-26T16:44:17.559Z,27.34
2022-08-26T16:46:45.997Z,27.25
2022-08-26T16:49:14.719Z,27.18
2022-08-26T16:51:43.109Z,27.10
2022-08-26T16:54:11.277Z,27.03
2022-08-26T16:56:39.509Z,26.94
2022-08-26T16:59:11.179Z,26.83
2022-08-26T17:01:39.602Z,26.64
2022-08-26T17:04:08.114Z,26.42
2022-08-26T17:06:37.010Z,26.20
2022-08-26T17:09:05.455Z,25.91
2022-08-26T17:11:34.342Z,25.68
2022-08-26T17:14:03.128Z,25.45
2022-08-26T17:16:32.218Z,25.23
2022-08-26T17:19:00.723Z,25.01
2022-08-26T17:21:29.193Z,24.82
2022-08-26T17:23:57.527Z,24.66
2022-08-26T17:26:26.910Z,24.51
2022-08-26T17:28:55.664Z,24.42
2022-08-26T17:31:24.621Z,24.30
2022-08-26T17:33:54.265Z,24.14
2022-08-26T17:36:28.062Z,23.96
2022-08-26T17:38:58.906Z,23.76
2022-08-26T17:41:28.223Z,23.61
2022-08-26T17:43:57.254Z,23.49
2022-08-26T17:46:25.912Z,23.33
2022-08-26T17:48:55.005Z,23.28
2022-08-26T17:51:24.329Z,23.17
2022-08-26T17:53:52.867Z,23.07
2022-08-26T17:56:26.738Z,22.99
2022-08-26T17:59:02.515Z,22.91
2022-08-26T18:01:32.781Z,22.83
2022-08-26T18:04:01.486Z,22.78
2022-08-26T18:06:30.915Z,22.70
2022-08-26T18:09:00.759Z,22.59
2022-08-26T18:11:29.566Z,22.50
2022-08-26T18:13:58.416Z,22.44
2022-08-26T18:16:27.556Z,22.39
2022-08-26T18:18:55.738Z,22.30
2022-08-26T18:21:26.263Z,22.22
2022-08-26T18:23:55.019Z,22.17
2022-08-26T18:26:29.643Z,22.13
2022-08-26T18:28:58.828Z,22.11
2022-08-26T18:31:27.884Z,22.09
2022-08-26T18:33:56.657Z,22.07
2022-08-26T18:36:29.330Z,22.03
2022-08-26T18:38:59.563Z,21.96
2022-08-26T18:41:30.490Z,21.88
2022-08-26T18:43:59.911Z,21.87
2022-08-26T18:46:28.626Z,21.94
2022-08-26T18:48:57.822Z,22.04
2022-08-26T18:51:31.655Z,22.14
2022-08-26T18:54:02.523Z,22.20
2022-08-26T18:56:30.937Z,22.26
2022-08-26T18:59:00.104Z,22.29
2022-08-26T19:01:30.460Z,22.31
2022-08-26T19:04:01.423Z,22.33
2022-08-26T19:06:33.113Z,22.34
2022-08-26T19:09:02.414Z,22.35
2022-08-26T19:11:42.336Z,22.33
2022-08-26T19:14:15.153Z,22.29
2022-08-26T19:16:46.498Z,22.22
2022-08-26T19:19:15.751Z,22.13
2022-08-26T19:21:44.328Z,22.07
2022-08-26T19:24:15.867Z,22.02
2022-08-26T19:26:47.025Z,21.96
2022-08-26T19:31:49.697Z,21.84
2022-08-26T19:34:20.753Z,21.79
2022-08-26T19:36:50.376Z,21.72
2022-08-26T19:39:18.953Z,21.64
2022-08-26T19:41:47.311Z,21.57
2022-08-26T19:44:39.068Z,21.50
2022-08-26T19:47:09.064Z,21.42
2022-08-26T19:49:37.873Z,21.35
2022-08-26T19:52:06.586Z,21.30
2022-08-26T19:54:36.315Z,21.24
2022-08-26T19:57:05.815Z,21.19
2022-08-26T19:59:33.997Z,21.14
2022-08-26T20:02:07.122Z,21.10
2022-08-26T20:04:39.250Z,21.03
2022-08-26T20:07:12.039Z,20.97
2022-08-26T20:09:41.967Z,20.88
2022-08-26T20:12:10.093Z,20.82
2022-08-26T20:14:38.337Z,20.71
2022-08-26T20:17:06.864Z,20.72
2022-08-26T20:19:54.493Z,20.67
2022-08-26T20:22:23.008Z,20.63
2022-08-26T20:24:52.355Z,20.58
2022-08-26T20:27:27.642Z,20.54
2022-08-26T20:30:09.135Z,20.46
2022-08-26T20:32:39.652Z,20.38
2022-08-26T20:35:11.513Z,20.30
2022-08-26T20:37:40.802Z,20.20
2022-08-26T20:40:11.751Z,20.12
2022-08-26T20:42:40.125Z,20.08
2022-08-26T20:45:09.091Z,20.05
2022-08-26T20:47:38.893Z,20.03
2022-08-26T20:50:08.757Z,20.02
2022-08-26T20:52:36.968Z,20.00
2022-08-26T20:55:05.729Z,19.99
2022-08-26T20:57:34.063Z,19.99
2022-08-26T21:00:02.383Z,19.96
2022-08-26T21:02:31.714Z,19.92
2022-08-26T21:05:00.690Z,19.87
2022-08-26T21:07:31.130Z,19.83
2022-08-26T21:10:00.601Z,19.79
2022-08-26T21:12:28.991Z,19.76
2022-08-26T21:14:57.222Z,19.73
2022-08-26T21:17:25.736Z,19.71
2022-08-26T21:19:54.347Z,19.71
2022-08-26T21:22:22.741Z,19.69
2022-08-26T21:24:50.874Z,19.64
2022-08-26T21:27:26.087Z,19.59
2022-08-26T21:29:55.567Z,19.54
2022-08-26T21:32:23.970Z,19.52
2022-08-26T21:34:56.820Z,19.50
2022-08-26T21:37:26.390Z,19.48
2022-08-26T21:39:59.414Z,19.45
2022-08-26T21:42:31.861Z,19.43
2022-08-26T21:45:01.852Z,19.43
2022-08-26T21:47:32.291Z,19.41
2022-08-26T21:50:00.975Z,19.40
2022-08-26T21:52:30.194Z,19.41
2022-08-26T21:55:00.635Z,19.42
2022-08-26T21:57:30.171Z,19.44
2022-08-26T21:59:58.731Z,19.46
2022-08-26T22:02:27.111Z,19.47
2022-08-26T22:04:56.519Z,19.46
2022-08-26T22:07:24.574Z,19.45
2022-08-26T22:09:52.779Z,19.43
2022-08-26T22:12:20.908Z,19.40
2022-08-26T22:14:49.386Z,19.34
2022-08-26T22:17:17.645Z,19.28
2022-08-26T22:19:46.798Z,19.23
2022-08-26T22:22:16.112Z,19.16
2022-08-26T22:24:44.642Z,19.11
2022-08-26T22:27:14.004Z,19.06
2022-08-26T22:29:42.202Z,18.99
2022-08-26T22:32:10.946Z,18.92
2022-08-26T22:34:39.909Z,18.84
2022-08-26T22:37:08.218Z,18.77
2022-08-26T22:39:36.399Z,18.72
2022-08-26T22:42:04.902Z,18.67
2022-08-26T22:44:33.339Z,18.64
2022-08-26T22:47:01.498Z,18.62
2022-08-26T22:49:29.751Z,18.58
2022-08-26T22:51:58.335Z,18.54
2022-08-26T22:54:28.241Z,18.48
2022-08-26T22:56:56.295Z,18.43
2022-08-26T22:59:24.600Z,18.38
2022-08-26T23:01:52.790Z,18.33
2022-08-26T23:04:21.280Z,18.30
2022-08-26T23:06:49.928Z,18.27
2022-08-26T23:09:19.412Z,18.26
2022-08-26T23:11:49.466Z,18.25
2022-08-26T23:14:19.215Z,18.22
2022-08-26T23:16:47.970Z,18.20
2022-08-26T23:19:20.390Z,18.18
2022-08-26T23:21:49.982Z,18.14
2022-08-26T23:24:18.751Z,18.10
2022-08-26T23:26:47.019Z,18.07
2022-08-26T23:29:16.194Z,18.04
2022-08-26T23:31:44.982Z,18.01
2022-08-26T23:34:33.012Z,17.99
2022-08-26T23:37:02.139Z,17.96
2022-08-26T23:39:35.367Z,17.94
2022-08-26T23:42:04.463Z,17.93
2022-08-26T23:44:33.197Z,17.91
2022-08-26T23:47:01.944Z,17.90
2022-08-26T23:49:31.070Z,17.87
2022-08-26T23:52:18.346Z,17.86
2022-08-26T23:54:48.878Z,17.83
2022-08-26T23:57:18.663Z,17.79
2022-08-26T23:59:48.723Z,17.75
